Airfield :
LOGIN :

Register | Disclaimer

   EN    FR    IT 

 










Legend :    VFR   Marginal VFR   IFR   Intensive IFR   Very Intensive IFR
Visi :
Ceiling :
>= 8 km
>= 3000ft
5 to 8 km
1000 to 3000 ft
1500m to 5 km
500 to 1000 ft
800 to 1500m
200 to 500 ft
< 800m
< 200 ft
Symbols :   Thunderstorms  Fog  Heavy snow  Heavy precipitations  Wind > 20 kt
SIGMETs :     Misc.  Thunderstorms  Icing  Turbulence  Mountain Waves  Volcanic Ashes






- Airport Elevation : 614 ft
- IATA code : CRL


EBCI - Charleroi

CURRENT METAR :
  • 230650Z 19008KT 160V220 CAVOK 15/12 Q1007 NOSIG

EXPIRED METARs :
  • 230620Z 19009KT CAVOK 15/12 Q1007 NOSIG
  • 230550Z 20006KT CAVOK 14/10 Q1007 NOSIG
  • 230520Z 19006KT CAVOK 14/10 Q1007 NOSIG
  • 230450Z 19005KT CAVOK 13/09 Q1007 NOSIG
  • 230420Z 20007KT CAVOK 14/09 Q1007 NOSIG

TAF TAF EBCI
Valid from the 23 at 00:00 until the 24 at 06:00 UTC


222300Z 2300/2406 20003KT CAVOK
BECMG 2308/2311 21013KT
TEMPO 2315/2402 4000 SHRA



MET'MAP, your aeronautical weather chart ! - Copyright ORBIFLY December 2007 - Disclaimer

ORBIFLY MET'MAP TEAM :

Programming & Development : Alexandra Zaïnal
Concept & original design : Baudouin d'Aumeries
Assistance for programming : Marc-Olivier Méhu
Technical & hardware support : Manuel Goepfert

Contact : metmap@orbifly.com




SOURCES & CREDITS :

   NOAA